Main page
METAR-TAF:

METAR-TAF

Airports :

Ramón Villeda Morales International Airport

San Pedro Sula, Honduras

latitude: 15-27N, longitude: 087-56W, elevation: 31 m

Current weather observation

The report was made 44 minutes ago, at 23:00 UTC
Wind 12 kt from the North/Northeast
Temperature 31°C
Humidity 71%
Pressure 1012 hPa
Visibility 10 km or more
Few clouds at a height of 2800 ft

METAR: MHLM 172300Z 03012KT 9999 FEW028 31/25 Q1012 A2989 NOSIG

Time: 17:44 (23:44 UTC)

Forecast

Forecast valid from 17 at 18 UTC to 18 at 18 UTC
Wind 12 kt from the North/Northeast
Visibility 10 km or more
Scattered clouds at a height of 2800 ft
Becoming
from 18 at 02 UTC to 18 at 04 UTC
Wind 4 kt from variable directions

TAF: MHLM 1718/1818 03012KT 9999 SCT028 TX33/1720Z TN23/1812Z BECMG 1802/1804 VRB04KT

Weather observations and forecasts of more than 4000 airports (METAR and TAF reports).

The available stations are represented by yellow and red dots on the map.

Hover mouse over dot to see the name of the station.

Then click to see weather observations and forecasts.

To change the map : click on the green buttons with a black cross to zoom in, on the green button with a dash to zoom out, or on the green arrows for adjacent maps.


METAR-TAF: